In Rescue
 
Open Full Screen Window  High Contrast Mode
Wind Gusting 00 knots
05
July 25, 2021 8:08 AM EDT
Weather Information
Wind Direction
  280 °
Wind Speed
  05 kt (6 mph)
Wind Gust
  00 kt (0 mph)
Altimeter
29.86 in
Visibility
10 SM
Temperature
21° C
70° F
Dewpoint
16° C
61° F
Humidity
73%
Sky Condition
Clear
VFR

METAR KCVX 251208Z AUTO 28005KT 10SM CLR 21/16 A2986 RMK AO2 T02090160

FAA Disclaimer: The data displayed is for advisory purposes only and is not to be used for flight planning or operations.